createdAt,value
2019-03-25T00:00:41.885Z,938.5
2019-03-25T00:01:41.605Z,938.6
2019-03-25T00:02:41.331Z,938.6
2019-03-25T00:03:41.103Z,938.4
2019-03-25T00:04:40.821Z,938.5
2019-03-25T00:05:40.551Z,938.4
2019-03-25T00:06:40.275Z,938.3
2019-03-25T00:07:40.001Z,938.4
2019-03-25T00:08:40.235Z,938.4
2019-03-25T00:09:40.007Z,938.3
2019-03-25T00:10:39.737Z,938.4
2019-03-25T00:11:39.455Z,938.3
2019-03-25T00:12:39.187Z,938.2
2019-03-25T00:13:38.983Z,938.3
2019-03-25T00:14:38.722Z,938.3
2019-03-25T00:15:38.481Z,938.3
2019-03-25T00:16:38.221Z,938.3
2019-03-25T00:17:37.939Z,938.2
2019-03-25T00:18:38.251Z,938.3
2019-03-25T00:19:38.157Z,938.3
2019-03-25T00:20:38.129Z,938.2
2019-03-25T00:21:38.024Z,938.3
2019-03-25T00:22:37.903Z,938.2
2019-03-25T00:23:37.821Z,938.2
2019-03-25T00:24:40.011Z,936.9
2019-03-25T00:25:39.936Z,938.2
2019-03-25T00:26:39.818Z,938.1
2019-03-25T00:27:39.735Z,938.3
2019-03-25T00:28:40.096Z,938.3
2019-03-25T00:29:39.982Z,938.3
2019-03-25T00:30:39.861Z,938.2
2019-03-25T00:31:39.793Z,938.2
2019-03-25T00:32:39.693Z,938.2
2019-03-25T00:33:39.589Z,938.2
2019-03-25T00:34:39.571Z,937.3
2019-03-25T00:35:39.465Z,938.2
2019-03-25T00:36:39.363Z,938
2019-03-25T00:37:39.286Z,938.1
2019-03-25T00:38:39.629Z,938.2
2019-03-25T00:39:39.553Z,938.2
2019-03-25T00:40:39.493Z,938
2019-03-25T00:41:39.381Z,938.1
2019-03-25T00:42:39.318Z,937.6
2019-03-25T00:43:39.204Z,938.1
2019-03-25T00:44:39.099Z,938.2
2019-03-25T00:45:38.991Z,938.2
2019-03-25T00:46:38.899Z,938
2019-03-25T00:47:38.785Z,938.2
2019-03-25T00:48:41.970Z,938.2
2019-03-25T00:49:41.870Z,938.2
2019-03-25T00:50:41.755Z,938.2
2019-03-25T00:51:41.495Z,938.2
2019-03-25T00:52:41.413Z,938.2
2019-03-25T00:53:41.173Z,938.2
2019-03-25T00:54:50.945Z,938.1
2019-03-25T00:55:50.879Z,938.1
2019-03-25T00:56:50.607Z,938.1
2019-03-25T00:57:50.333Z,938.1
2019-03-25T00:58:50.489Z,938
2019-03-25T00:59:50.223Z,938
2019-03-25T01:00:49.956Z,938
2019-03-25T01:01:49.697Z,938
2019-03-25T01:02:49.427Z,938
2019-03-25T01:03:49.147Z,938
2019-03-25T01:04:48.907Z,937.9
2019-03-25T01:05:48.629Z,938
2019-03-25T01:06:48.359Z,937.9
2019-03-25T01:07:48.084Z,937.1
2019-03-25T01:08:48.243Z,938
2019-03-25T01:09:48.169Z,938
2019-03-25T01:10:48.096Z,937.8
2019-03-25T01:11:50.129Z,937.9
2019-03-25T01:12:50.011Z,938
2019-03-25T01:13:49.733Z,938
2019-03-25T01:14:49.493Z,937.9
2019-03-25T01:15:49.207Z,937.8
2019-03-25T01:16:48.933Z,937.9
2019-03-25T01:17:48.659Z,937.7
2019-03-25T01:18:48.982Z,937.4
2019-03-25T01:19:48.864Z,937.7
2019-03-25T01:20:48.788Z,937.7
2019-03-25T01:21:48.699Z,937.2
2019-03-25T01:22:48.602Z,937.8
2019-03-25T01:23:48.470Z,937.8
2019-03-25T01:24:48.359Z,937.7
2019-03-25T01:25:48.273Z,937.7
2019-03-25T01:26:48.208Z,937.6
2019-03-25T01:27:48.097Z,937.6
2019-03-25T01:28:48.397Z,937.7
2019-03-25T01:29:48.288Z,937.8
2019-03-25T01:30:48.180Z,937.6
2019-03-25T01:31:48.064Z,937.7
2019-03-25T01:32:47.930Z,937.5
2019-03-25T01:33:47.841Z,937.5
2019-03-25T01:34:47.744Z,937.5
2019-03-25T01:35:47.664Z,937.7
2019-03-25T01:36:47.602Z,937.7
2019-03-25T01:37:47.472Z,937.8
2019-03-25T01:38:47.792Z,936.2
2019-03-25T01:39:47.694Z,937.8
2019-03-25T01:40:47.629Z,937.7
2019-03-25T01:41:47.552Z,937.7
2019-03-25T01:42:47.432Z,937.7
2019-03-25T01:43:47.328Z,937.7
2019-03-25T01:44:47.218Z,937.7
2019-03-25T01:45:47.111Z,937.6
2019-03-25T01:46:47.004Z,937.5
2019-03-25T01:47:46.884Z,937.6
2019-03-25T01:48:47.211Z,937.6
2019-03-25T01:49:47.090Z,937.6
2019-03-25T01:50:46.978Z,937.7
2019-03-25T01:51:46.927Z,937.6
2019-03-25T01:52:46.812Z,937.6
2019-03-25T01:53:46.752Z,937.5
2019-03-25T01:54:46.654Z,937.5
2019-03-25T01:55:46.563Z,937.6
2019-03-25T01:56:46.475Z,937.6
2019-03-25T01:57:46.385Z,937.6
2019-03-25T01:58:46.714Z,937.7
2019-03-25T01:59:46.601Z,937.7
2019-03-25T02:00:46.481Z,937.5
2019-03-25T02:01:46.364Z,937.6
2019-03-25T02:02:46.272Z,937.6
2019-03-25T02:03:46.199Z,937.4
2019-03-25T02:04:46.104Z,937.4
2019-03-25T02:05:45.990Z,937.5
2019-03-25T02:06:45.880Z,937.6
2019-03-25T02:07:45.798Z,937.5
2019-03-25T02:08:46.149Z,936.2
2019-03-25T02:09:46.083Z,937.5
2019-03-25T02:10:46.023Z,937.4
2019-03-25T02:11:45.758Z,937.5
2019-03-25T02:12:45.526Z,937.5
2019-03-25T02:13:45.281Z,937.5
2019-03-25T02:14:45.086Z,937.5
2019-03-25T02:15:44.854Z,937.5
2019-03-25T02:16:44.572Z,937.5
2019-03-25T02:17:44.318Z,937.5
2019-03-25T02:18:44.678Z,937.5
2019-03-25T02:19:44.560Z,937.4
2019-03-25T02:20:44.460Z,937.6
2019-03-25T02:21:44.348Z,937.6
2019-03-25T02:22:45.281Z,937.5
2019-03-25T02:23:45.455Z,937.5
2019-03-25T02:24:45.336Z,937.6
2019-03-25T02:25:45.216Z,937.6
2019-03-25T02:26:45.154Z,937.5
2019-03-25T02:27:45.030Z,937.3
2019-03-25T02:28:45.348Z,937.4
2019-03-25T02:29:45.250Z,937.4
2019-03-25T02:30:45.169Z,937.5
2019-03-25T02:31:45.099Z,937.6
2019-03-25T02:32:45.008Z,937.6
2019-03-25T02:33:44.914Z,937.5
2019-03-25T02:34:44.868Z,937.5
2019-03-25T02:35:44.804Z,937.5
2019-03-25T02:36:44.721Z,937.5
2019-03-25T02:37:44.663Z,937.5
2019-03-25T02:38:45.031Z,937.6
2019-03-25T02:39:44.930Z,937.5
2019-03-25T02:40:44.907Z,937.4
2019-03-25T02:41:45.045Z,937.5
2019-03-25T02:42:45.029Z,937.5
2019-03-25T02:43:44.934Z,937.4
2019-03-25T02:44:44.854Z,936
2019-03-25T02:45:44.795Z,937.5
2019-03-25T02:46:44.721Z,937.6
2019-03-25T02:47:44.646Z,937.4
2019-03-25T02:48:45.126Z,937.5
2019-03-25T02:49:45.263Z,937.5
2019-03-25T02:50:45.214Z,937.5
2019-03-25T02:51:45.163Z,937.5
2019-03-25T02:52:45.055Z,937.5
2019-03-25T02:53:44.964Z,937.4
2019-03-25T02:54:44.926Z,937.3
2019-03-25T02:55:44.865Z,937.5
2019-03-25T02:56:44.847Z,937.4
2019-03-25T02:57:44.772Z,937.3
2019-03-25T02:58:45.162Z,937.5
2019-03-25T02:59:45.104Z,937.4
2019-03-25T03:00:45.044Z,937.4
2019-03-25T03:01:45.046Z,937.5
2019-03-25T03:02:44.963Z,937.4
2019-03-25T03:03:44.915Z,937.4
2019-03-25T03:04:44.839Z,937.4
2019-03-25T03:05:44.874Z,937.5
2019-03-25T03:06:44.844Z,936.6
2019-03-25T03:07:44.887Z,937.4
2019-03-25T03:08:48.446Z,937.4
2019-03-25T03:09:48.346Z,937.5
2019-03-25T03:10:48.267Z,937.6
2019-03-25T03:11:48.213Z,937.5
2019-03-25T03:12:48.199Z,937.3
2019-03-25T03:13:48.128Z,936.7
2019-03-25T03:14:48.051Z,937.4
2019-03-25T03:15:47.971Z,937.4
2019-03-25T03:16:47.971Z,937.4
2019-03-25T03:17:47.849Z,937.4
2019-03-25T03:18:48.166Z,937.5
2019-03-25T03:19:48.090Z,937.4
2019-03-25T03:20:48.012Z,937.4
2019-03-25T03:21:47.997Z,937.4
2019-03-25T03:22:47.904Z,937.4
2019-03-25T03:23:47.793Z,937.4
2019-03-25T03:24:47.689Z,937.3
2019-03-25T03:25:59.159Z,937.2
2019-03-25T03:26:59.092Z,937.3
2019-03-25T03:27:58.997Z,937.4
2019-03-25T03:28:59.356Z,937.4
2019-03-25T03:29:59.292Z,937.4
2019-03-25T03:30:59.054Z,937.3
2019-03-25T03:31:58.814Z,937.3
2019-03-25T03:32:58.588Z,937.2
2019-03-25T03:33:58.389Z,937.3
2019-03-25T03:34:58.170Z,937.4
2019-03-25T03:35:57.921Z,937.3
2019-03-25T03:36:57.661Z,937.3
2019-03-25T03:37:57.395Z,936
2019-03-25T03:38:57.750Z,937.3
2019-03-25T03:39:57.663Z,937.3
2019-03-25T03:40:57.564Z,937.3
2019-03-25T03:41:57.481Z,937.2
2019-03-25T03:42:57.364Z,937.2
2019-03-25T03:44:01.365Z,937.2
2019-03-25T03:45:01.529Z,937.2
2019-03-25T03:46:01.441Z,937.2
2019-03-25T03:47:01.349Z,937.1
2019-03-25T03:48:01.260Z,937.1
2019-03-25T03:49:01.710Z,937.3
2019-03-25T03:50:01.629Z,937.3
2019-03-25T03:51:01.567Z,937.2
2019-03-25T03:52:01.329Z,937.3
2019-03-25T03:53:01.072Z,937.2
2019-03-25T03:54:00.846Z,937.3
2019-03-25T03:55:00.896Z,937.1
2019-03-25T03:56:14.981Z,937.3
2019-03-25T03:57:14.716Z,937.1
2019-03-25T03:58:14.458Z,937.2
2019-03-25T03:59:14.647Z,937.3
2019-03-25T04:00:14.387Z,937.2
2019-03-25T04:01:14.139Z,937
2019-03-25T04:02:13.915Z,937.2
2019-03-25T04:03:13.666Z,937.2
2019-03-25T04:04:13.465Z,937.2
2019-03-25T04:05:13.210Z,937.2
2019-03-25T04:06:12.992Z,937.2
2019-03-25T04:07:12.741Z,937.1
2019-03-25T04:08:12.477Z,937.3
2019-03-25T04:09:12.627Z,937.3
2019-03-25T04:10:12.431Z,937.3
2019-03-25T04:11:12.187Z,937.3
2019-03-25T04:12:11.940Z,937.3
2019-03-25T04:13:11.853Z,937.3
2019-03-25T04:14:11.635Z,937.3
2019-03-25T04:15:11.425Z,937.3
2019-03-25T04:16:11.425Z,937.3
2019-03-25T04:17:11.167Z,937.2
2019-03-25T04:18:10.946Z,937.3
2019-03-25T04:19:11.384Z,937.3
2019-03-25T04:20:11.374Z,937.3
2019-03-25T04:21:11.303Z,937.3
2019-03-25T04:22:11.266Z,937.3
2019-03-25T04:23:11.190Z,937.3
2019-03-25T04:24:11.117Z,937.1
2019-03-25T04:25:11.129Z,937.1
2019-03-25T04:26:11.036Z,937.2
2019-03-25T04:27:10.961Z,937.3
2019-03-25T04:28:10.886Z,937.3
2019-03-25T04:29:11.351Z,937.1
2019-03-25T04:30:11.310Z,937.3
2019-03-25T04:31:11.218Z,937.3
2019-03-25T04:32:11.149Z,937.3
2019-03-25T04:33:11.052Z,937.2
2019-03-25T04:34:11.001Z,937.3
2019-03-25T04:35:10.918Z,937.3
2019-03-25T04:36:10.844Z,937.2
2019-03-25T04:37:10.731Z,937.3
2019-03-25T04:38:10.683Z,937.3
2019-03-25T04:39:11.022Z,937.2
2019-03-25T04:40:11.004Z,937.3
2019-03-25T04:41:10.984Z,937.3
2019-03-25T04:42:10.872Z,937.3
2019-03-25T04:43:10.858Z,937.3
2019-03-25T04:44:10.756Z,937.3
2019-03-25T04:45:10.658Z,935.9
2019-03-25T04:46:10.549Z,937.2
2019-03-25T04:47:10.456Z,937.2
2019-03-25T04:48:10.361Z,937.2
2019-03-25T04:49:10.718Z,937.3
2019-03-25T04:50:10.598Z,937.3
2019-03-25T04:51:10.480Z,937.2
2019-03-25T04:52:10.403Z,937.1
2019-03-25T04:53:10.330Z,937.3
2019-03-25T04:54:10.229Z,937.2
2019-03-25T04:55:10.120Z,937.3
2019-03-25T04:56:10.016Z,937.3
2019-03-25T04:57:09.930Z,937.2
2019-03-25T04:58:09.811Z,937.2
2019-03-25T04:59:10.165Z,937.3
2019-03-25T05:00:10.054Z,937.3
2019-03-25T05:01:09.952Z,937.2
2019-03-25T05:02:09.886Z,937.3
2019-03-25T05:03:09.782Z,937.3
2019-03-25T05:04:09.694Z,937.2
2019-03-25T05:05:09.614Z,937.3
2019-03-25T05:06:09.540Z,937.3
2019-03-25T05:07:09.451Z,937.3
2019-03-25T05:08:09.435Z,937.3
2019-03-25T05:09:09.758Z,937.3
2019-03-25T05:10:09.657Z,937.2
2019-03-25T05:11:09.632Z,937.3
2019-03-25T05:12:09.576Z,937.2
2019-03-25T05:13:09.484Z,937.2
2019-03-25T05:14:09.392Z,937.2
2019-03-25T05:15:09.308Z,937.1
2019-03-25T05:16:09.205Z,937.1
2019-03-25T05:17:09.104Z,937.2
2019-03-25T05:18:09.024Z,937.2
2019-03-25T05:19:09.372Z,937.3
2019-03-25T05:20:09.262Z,937.3
2019-03-25T05:21:09.173Z,937.3
2019-03-25T05:22:11.691Z,937.3
2019-03-25T05:23:11.635Z,937.3
2019-03-25T05:24:11.526Z,937.3
2019-03-25T05:25:11.439Z,936.3
2019-03-25T05:26:11.326Z,937.1
2019-03-25T05:27:11.246Z,937
2019-03-25T05:28:11.123Z,937.2
2019-03-25T05:29:14.421Z,937.1
2019-03-25T05:30:14.571Z,937.3
2019-03-25T05:31:14.464Z,937.2
2019-03-25T05:32:14.382Z,937.3
2019-03-25T05:33:14.512Z,937.4
2019-03-25T05:34:14.393Z,937.4
2019-03-25T05:35:14.284Z,937.4
2019-03-25T05:36:14.172Z,937.3
2019-03-25T05:37:14.084Z,937.3
2019-03-25T05:38:13.968Z,937.2
2019-03-25T05:39:14.273Z,937.3
2019-03-25T05:40:14.180Z,937.2
2019-03-25T05:41:14.070Z,937.3
2019-03-25T05:42:13.974Z,937.3
2019-03-25T05:43:13.913Z,936.4
2019-03-25T05:44:13.806Z,937.2
2019-03-25T05:45:13.736Z,937.3
2019-03-25T05:46:14.314Z,937.3
2019-03-25T05:47:14.237Z,937.2
2019-03-25T05:48:14.132Z,937.1
2019-03-25T05:49:14.436Z,937.4
2019-03-25T05:50:14.328Z,937.4
2019-03-25T05:51:14.216Z,937.3
2019-03-25T05:52:14.336Z,937.3
2019-03-25T05:53:14.236Z,937.3
2019-03-25T05:54:14.147Z,937.3
2019-03-25T05:55:14.038Z,937.2
2019-03-25T05:56:13.938Z,937.2
2019-03-25T05:57:13.840Z,937.3
2019-03-25T05:58:13.746Z,937.2
2019-03-25T05:59:14.088Z,937.3
2019-03-25T06:00:13.970Z,937.2
2019-03-25T06:01:14.071Z,937.2
2019-03-25T06:02:13.961Z,937.2
2019-03-25T06:03:13.920Z,937.3
2019-03-25T06:04:13.860Z,937.2
2019-03-25T06:05:14.204Z,937.3
2019-03-25T06:06:14.088Z,937.3
2019-03-25T06:07:13.980Z,937.2
2019-03-25T06:08:13.890Z,937.2
2019-03-25T06:09:14.648Z,937.2
2019-03-25T06:10:14.516Z,937.2
2019-03-25T06:11:15.128Z,937.2
2019-03-25T06:12:15.025Z,937.1
2019-03-25T06:13:14.893Z,937.3
2019-03-25T06:14:14.985Z,937.3
2019-03-25T06:15:14.907Z,937.3
2019-03-25T06:16:14.804Z,937.3
2019-03-25T06:17:14.709Z,937.4
2019-03-25T06:18:14.599Z,937.3
2019-03-25T06:19:14.955Z,937.2
2019-03-25T06:20:14.883Z,937.1
2019-03-25T06:21:14.770Z,937.2
2019-03-25T06:22:14.665Z,937.4
2019-03-25T06:23:14.616Z,937.4
2019-03-25T06:24:14.553Z,937.4
2019-03-25T06:25:14.487Z,937.3
2019-03-25T06:26:14.375Z,937.4
2019-03-25T06:27:15.441Z,937.4
2019-03-25T06:28:15.314Z,937.4
2019-03-25T06:29:15.729Z,937.4
2019-03-25T06:30:15.656Z,937.2
2019-03-25T06:31:15.558Z,937.2
2019-03-25T06:32:15.444Z,937.4
2019-03-25T06:33:15.356Z,937.3
2019-03-25T06:34:15.271Z,937.2
2019-03-25T06:35:15.173Z,937.3
2019-03-25T06:36:15.076Z,937.3
2019-03-25T06:37:14.959Z,937.4
2019-03-25T06:38:14.877Z,937.4
2019-03-25T06:39:15.449Z,937.3
2019-03-25T06:40:15.348Z,937.3
2019-03-25T06:41:15.214Z,937.2
2019-03-25T06:42:15.162Z,937.4
2019-03-25T06:43:15.058Z,937.3
2019-03-25T06:44:14.965Z,937.4
2019-03-25T06:45:15.081Z,937.4
2019-03-25T06:46:15.047Z,937.4
2019-03-25T06:47:15.031Z,937.3
2019-03-25T06:48:14.925Z,937.4
2019-03-25T06:49:15.295Z,937.3
2019-03-25T06:50:15.197Z,937.3
2019-03-25T06:51:15.131Z,937.4
2019-03-25T06:52:15.085Z,937.1
2019-03-25T06:53:14.981Z,937.2
2019-03-25T06:54:15.001Z,937.2
2019-03-25T06:55:14.892Z,937.2
2019-03-25T06:56:14.779Z,937.2
2019-03-25T06:57:26.692Z,937.2
2019-03-25T06:58:26.610Z,937.3
2019-03-25T06:59:27.031Z,937.4
2019-03-25T07:00:27.165Z,937.3
2019-03-25T07:01:27.061Z,937.4
2019-03-25T07:02:26.979Z,937.3
2019-03-25T07:03:26.853Z,937.4
2019-03-25T07:04:26.751Z,937.2
2019-03-25T07:05:26.630Z,937.3
2019-03-25T07:06:26.563Z,937.3
2019-03-25T07:07:26.481Z,937.3
2019-03-25T07:08:26.441Z,937.3
2019-03-25T07:09:26.760Z,937.4
2019-03-25T07:10:29.019Z,937.4
2019-03-25T07:11:28.905Z,937.4
2019-03-25T07:12:28.811Z,937.3
2019-03-25T07:13:28.787Z,937.3
2019-03-25T07:14:28.687Z,937.3
2019-03-25T07:15:28.582Z,937.4
2019-03-25T07:16:28.568Z,937.3
2019-03-25T07:17:28.467Z,937.2
2019-03-25T07:18:28.417Z,937.5
2019-03-25T07:19:28.799Z,936.9
2019-03-25T07:20:28.696Z,937.3
2019-03-25T07:21:28.569Z,937.4
2019-03-25T07:22:28.479Z,937.3
2019-03-25T07:23:28.371Z,937.3
2019-03-25T07:24:28.283Z,937.3
2019-03-25T07:25:28.181Z,937.4
2019-03-25T07:26:28.299Z,937.3
2019-03-25T07:27:38.154Z,937.1
2019-03-25T07:28:39.645Z,937.4
2019-03-25T07:29:39.993Z,937.3
2019-03-25T07:30:40.098Z,937.3
2019-03-25T07:31:39.984Z,937.3
2019-03-25T07:32:39.870Z,937.3
2019-03-25T07:33:39.763Z,937.3
2019-03-25T07:34:42.127Z,937.3
2019-03-25T07:35:42.023Z,937.3
2019-03-25T07:36:41.910Z,937.2
2019-03-25T07:37:41.797Z,937.2
2019-03-25T07:38:41.681Z,937.3
2019-03-25T07:39:44.536Z,937.3
2019-03-25T07:40:44.451Z,937.2
2019-03-25T07:41:44.176Z,937.3
2019-03-25T07:42:43.921Z,937.3
2019-03-25T07:43:43.703Z,935.9
2019-03-25T07:44:43.444Z,937.3
2019-03-25T07:45:43.209Z,937.3
2019-03-25T07:46:42.932Z,937.3
2019-03-25T07:47:42.896Z,937.2
2019-03-25T07:48:42.626Z,937.3
2019-03-25T07:49:43.181Z,937.2
2019-03-25T07:50:43.089Z,937.2
2019-03-25T07:51:43.010Z,937.2
2019-03-25T07:52:42.931Z,937.1
2019-03-25T07:53:43.072Z,937.3
2019-03-25T07:54:43.042Z,937.3
2019-03-25T07:55:42.989Z,937.2
2019-03-25T07:56:42.946Z,937.3
2019-03-25T07:57:49.583Z,937.2
2019-03-25T07:58:49.470Z,937.2
2019-03-25T07:59:50.525Z,937.2
2019-03-25T08:00:50.581Z,936.3
2019-03-25T08:01:50.600Z,937.2
2019-03-25T08:02:50.566Z,937.2
2019-03-25T08:03:50.497Z,937.3
2019-03-25T08:04:50.475Z,937.2
2019-03-25T08:05:50.659Z,937.3
2019-03-25T08:06:50.657Z,937.3
2019-03-25T08:07:50.563Z,937.3
2019-03-25T08:08:50.810Z,937.3
2019-03-25T08:09:53.370Z,937.2
2019-03-25T08:10:53.343Z,937.2
2019-03-25T08:11:53.603Z,937.2
2019-03-25T08:12:53.892Z,937.3
2019-03-25T08:13:53.925Z,937.3
2019-03-25T08:14:53.836Z,937.1
2019-03-25T08:15:54.063Z,937.3
2019-03-25T08:16:54.263Z,937.1
2019-03-25T08:17:54.142Z,937.4
2019-03-25T08:18:54.028Z,936.9
2019-03-25T08:19:54.543Z,937.3
2019-03-25T08:20:54.446Z,937.3
2019-03-25T08:21:54.346Z,937.3
2019-03-25T08:22:54.269Z,937.3
2019-03-25T08:23:54.374Z,937.3
2019-03-25T08:24:54.783Z,937.4
2019-03-25T08:25:54.751Z,937.2
2019-03-25T08:26:54.880Z,937.3
2019-03-25T08:28:01.464Z,937.3
2019-03-25T08:29:01.403Z,937.2
2019-03-25T08:30:01.712Z,937.3
2019-03-25T08:31:01.601Z,937.3
2019-03-25T08:32:01.478Z,937.3
2019-03-25T08:33:01.374Z,937.3
2019-03-25T08:34:01.267Z,937.4
2019-03-25T08:35:01.680Z,937.3
2019-03-25T08:36:01.576Z,937.2
2019-03-25T08:37:04.591Z,937.3
2019-03-25T08:38:04.528Z,937.3
2019-03-25T08:39:04.420Z,937.4
2019-03-25T08:40:04.762Z,937.1
2019-03-25T08:41:04.710Z,937.4
2019-03-25T08:42:04.598Z,937.3
2019-03-25T08:43:05.068Z,937.3
2019-03-25T08:44:04.830Z,937.3
2019-03-25T08:45:04.550Z,937.3
2019-03-25T08:46:04.272Z,937.3
2019-03-25T08:47:04.014Z,937.3
2019-03-25T08:48:03.752Z,937.3
2019-03-25T08:49:03.481Z,937.3
2019-03-25T08:50:03.824Z,937.3
2019-03-25T08:51:03.737Z,937.3
2019-03-25T08:52:03.880Z,937.3
2019-03-25T08:53:03.786Z,937.3
2019-03-25T08:54:03.676Z,937.3
2019-03-25T08:55:03.612Z,937.3
2019-03-25T08:56:03.532Z,937.2
2019-03-25T08:57:03.444Z,937.1
2019-03-25T08:58:13.341Z,937.2
2019-03-25T08:59:13.234Z,937.3
2019-03-25T09:00:16.516Z,937.3
2019-03-25T09:01:16.455Z,937.2
2019-03-25T09:02:16.327Z,937.3
2019-03-25T09:03:16.226Z,937.3
2019-03-25T09:04:16.129Z,937.3
2019-03-25T09:05:16.075Z,937.3
2019-03-25T09:06:16.168Z,937.3
2019-03-25T09:07:16.282Z,937.3
2019-03-25T09:08:16.194Z,937.3
2019-03-25T09:09:16.097Z,937.3
2019-03-25T09:10:16.401Z,937.3
2019-03-25T09:11:16.294Z,937.2
2019-03-25T09:12:16.172Z,937.3
2019-03-25T09:13:16.086Z,937.3
2019-03-25T09:14:16.234Z,937.3
2019-03-25T09:15:16.094Z,937.4
2019-03-25T09:16:15.960Z,937.1
2019-03-25T09:17:15.898Z,937.4
2019-03-25T09:18:15.886Z,937.4
2019-03-25T09:19:16.028Z,937.3
2019-03-25T09:20:16.350Z,937.5
2019-03-25T09:21:16.249Z,937.3
2019-03-25T09:22:16.190Z,937.3
2019-03-25T09:23:16.091Z,937.3
2019-03-25T09:24:15.968Z,937.4
2019-03-25T09:25:15.878Z,937.4
2019-03-25T09:26:15.784Z,937.5
2019-03-25T09:27:15.680Z,937.4
2019-03-25T09:28:25.496Z,937.5
2019-03-25T09:29:25.414Z,937.5
2019-03-25T09:30:25.742Z,937.5
2019-03-25T09:31:37.968Z,937.4
2019-03-25T09:32:37.898Z,936.8
2019-03-25T09:33:37.914Z,937.5
2019-03-25T09:34:37.806Z,937.5
2019-03-25T09:35:37.672Z,937.5
2019-03-25T09:36:37.548Z,937.5
2019-03-25T09:37:37.434Z,937.5
2019-03-25T09:38:37.338Z,937.5
2019-03-25T09:39:37.218Z,935.9
2019-03-25T09:40:37.521Z,937.3
2019-03-25T09:41:37.429Z,937.4
2019-03-25T09:42:37.148Z,937.4
2019-03-25T09:43:36.890Z,937.4
2019-03-25T09:44:36.861Z,937.4
2019-03-25T09:45:36.647Z,937.3
2019-03-25T09:46:36.361Z,937.4
2019-03-25T09:47:38.647Z,937.4
2019-03-25T09:48:38.368Z,937.5
2019-03-25T09:49:38.098Z,937.5
2019-03-25T09:50:38.503Z,937.4
2019-03-25T09:51:38.238Z,937.4
2019-03-25T09:52:39.573Z,937.4
2019-03-25T09:53:39.290Z,937.3
2019-03-25T09:54:39.738Z,937.5
2019-03-25T09:55:39.478Z,937.4
2019-03-25T09:56:39.201Z,937.5
2019-03-25T09:57:38.956Z,937.6
2019-03-25T09:58:38.919Z,937.5
2019-03-25T09:59:38.666Z,937.4
2019-03-25T10:00:39.026Z,937.5
2019-03-25T10:01:39.615Z,937.4
2019-03-25T10:02:39.482Z,937.5
2019-03-25T10:03:39.370Z,937.5
2019-03-25T10:04:39.302Z,937.5
2019-03-25T10:05:39.180Z,937.5
2019-03-25T10:06:39.306Z,937.5
2019-03-25T10:07:39.185Z,937.5
2019-03-25T10:08:39.065Z,937.5
2019-03-25T10:09:38.970Z,937.5
2019-03-25T10:10:39.288Z,937.4
2019-03-25T10:11:39.194Z,937.5
2019-03-25T10:12:39.074Z,937.4
2019-03-25T10:13:38.803Z,937.5
2019-03-25T10:14:38.522Z,937.5
2019-03-25T10:15:38.282Z,937.4
2019-03-25T10:16:38.062Z,937.4
2019-03-25T10:17:37.782Z,936.1
2019-03-25T10:18:37.500Z,937.5
2019-03-25T10:19:37.229Z,937.6
2019-03-25T10:20:37.577Z,937.5
2019-03-25T10:21:37.543Z,937.5
2019-03-25T10:22:37.460Z,937.5
2019-03-25T10:23:37.648Z,937.5
2019-03-25T10:24:38.223Z,937.5
2019-03-25T10:25:38.108Z,937.5
2019-03-25T10:26:38.052Z,936.2
2019-03-25T10:27:38.012Z,937.4
2019-03-25T10:28:50.278Z,937.5
2019-03-25T10:29:50.180Z,937.5
2019-03-25T10:30:50.581Z,937.5
2019-03-25T10:31:50.714Z,937.5
2019-03-25T10:32:50.627Z,937.5
2019-03-25T10:33:50.518Z,937.5
2019-03-25T10:34:50.391Z,937.5
2019-03-25T10:35:50.569Z,937.5
2019-03-25T10:36:50.491Z,937.4
2019-03-25T10:37:50.399Z,937.4
2019-03-25T10:38:50.305Z,937.4
2019-03-25T10:39:50.197Z,937.4
2019-03-25T10:40:50.532Z,937.3
2019-03-25T10:41:50.457Z,937.3
2019-03-25T10:42:50.334Z,937.5
2019-03-25T10:43:50.428Z,937.5
2019-03-25T10:44:50.301Z,937.5
2019-03-25T10:45:50.229Z,937.5
2019-03-25T10:46:50.128Z,937.5
2019-03-25T10:47:50.051Z,937.3
2019-03-25T10:48:49.907Z,937.4
2019-03-25T10:49:49.774Z,937.5
2019-03-25T10:50:50.106Z,937.4
2019-03-25T10:51:50.000Z,937.3
2019-03-25T10:52:49.913Z,937.5
2019-03-25T10:53:49.810Z,937.5
2019-03-25T10:54:50.837Z,937.4
2019-03-25T10:55:50.799Z,937.5
2019-03-25T10:56:50.704Z,937.5
2019-03-25T10:57:50.588Z,937.5
2019-03-25T10:58:59.304Z,937.5
2019-03-25T10:59:59.212Z,937.5
2019-03-25T11:00:59.727Z,937.5
2019-03-25T11:01:59.865Z,937.5
2019-03-25T11:02:59.738Z,937.5
2019-03-25T11:03:59.630Z,937.3
2019-03-25T11:05:02.021Z,937.4
2019-03-25T11:06:01.964Z,937.3
2019-03-25T11:07:01.840Z,937.5
2019-03-25T11:08:01.732Z,937.4
2019-03-25T11:09:01.884Z,936.5
2019-03-25T11:10:01.846Z,937.3
2019-03-25T11:11:02.167Z,937.4
2019-03-25T11:12:02.045Z,937.5
2019-03-25T11:13:02.154Z,937.4
2019-03-25T11:14:02.054Z,937.4
2019-03-25T11:15:02.014Z,937.3
2019-03-25T11:16:01.901Z,937.4
2019-03-25T11:17:02.484Z,937.5
2019-03-25T11:18:02.391Z,937.4
2019-03-25T11:19:02.316Z,937.4
2019-03-25T11:20:05.213Z,937.5
2019-03-25T11:21:05.543Z,937.3
2019-03-25T11:22:05.432Z,937.3
2019-03-25T11:23:05.292Z,937.5
2019-03-25T11:24:05.408Z,937.5
2019-03-25T11:25:05.355Z,937.5
2019-03-25T11:26:05.270Z,937.5
2019-03-25T11:27:05.155Z,937.5
2019-03-25T11:28:05.021Z,937.5
2019-03-25T11:29:09.673Z,937.4
2019-03-25T11:30:09.633Z,937.5
2019-03-25T11:31:09.937Z,936.9
2019-03-25T11:32:09.842Z,937.5
2019-03-25T11:33:09.736Z,937.3
2019-03-25T11:34:09.633Z,937.4
2019-03-25T11:35:09.538Z,937.3
2019-03-25T11:36:09.485Z,937.5
2019-03-25T11:37:09.568Z,937.5
2019-03-25T11:38:09.432Z,937.5
2019-03-25T11:39:09.307Z,937.5
2019-03-25T11:40:09.222Z,937.5
2019-03-25T11:41:10.602Z,937.5
2019-03-25T11:42:11.207Z,937.4
2019-03-25T11:43:11.097Z,937.5
2019-03-25T11:44:11.021Z,937.5
2019-03-25T11:45:10.912Z,937.5
2019-03-25T11:46:11.055Z,937.5
2019-03-25T11:47:10.977Z,937.5
2019-03-25T11:48:10.895Z,937.4
2019-03-25T11:49:10.813Z,937.5
2019-03-25T11:50:10.710Z,937.5
2019-03-25T11:51:11.033Z,937.5
2019-03-25T11:52:10.971Z,937.3
2019-03-25T11:53:10.711Z,937.5
2019-03-25T11:54:10.423Z,937.4
2019-03-25T11:55:10.137Z,937.4
2019-03-25T11:56:09.861Z,937.4
2019-03-25T11:57:09.619Z,937.5
2019-03-25T11:58:09.344Z,937.4
2019-03-25T11:59:19.599Z,937.4
2019-03-25T12:00:19.332Z,937.4
2019-03-25T12:01:19.706Z,937.4
2019-03-25T12:02:19.593Z,937.4
2019-03-25T12:03:19.512Z,937.4
2019-03-25T12:04:19.697Z,937.5
2019-03-25T12:05:19.580Z,937.3
2019-03-25T12:06:19.491Z,937.5
2019-03-25T12:07:19.419Z,937.4
2019-03-25T12:08:19.317Z,937.3
2019-03-25T12:09:19.195Z,937.4
2019-03-25T12:10:19.087Z,937.3
2019-03-25T12:11:19.353Z,937.3
2019-03-25T12:12:19.264Z,937.3
2019-03-25T12:13:19.175Z,937.3
2019-03-25T12:14:19.084Z,937.2
2019-03-25T12:15:18.974Z,937.3
2019-03-25T12:16:18.873Z,937.3
2019-03-25T12:17:18.735Z,937.3
2019-03-25T12:18:18.663Z,937.3
2019-03-25T12:19:18.568Z,937.3
2019-03-25T12:20:18.445Z,937.2
2019-03-25T12:21:18.753Z,937.2
2019-03-25T12:22:18.726Z,937.3
2019-03-25T12:23:27.460Z,937.1
2019-03-25T12:24:27.354Z,937.3
2019-03-25T12:25:27.246Z,937.3
2019-03-25T12:26:27.390Z,937.2
2019-03-25T12:27:27.971Z,937.2
2019-03-25T12:28:27.896Z,937.1
2019-03-25T12:29:31.511Z,937
2019-03-25T12:30:31.457Z,937.1
2019-03-25T12:31:31.817Z,937
2019-03-25T12:32:31.708Z,937.1
2019-03-25T12:33:31.615Z,937.1
2019-03-25T12:34:32.220Z,937
2019-03-25T12:35:32.196Z,937.1
2019-03-25T12:36:32.105Z,937.1
2019-03-25T12:37:32.016Z,937.1
2019-03-25T12:38:31.910Z,937
2019-03-25T12:39:31.833Z,937.1
2019-03-25T12:40:31.714Z,937
2019-03-25T12:41:32.036Z,937
2019-03-25T12:42:31.954Z,937
2019-03-25T12:43:31.876Z,937
2019-03-25T12:44:31.817Z,937
2019-03-25T12:45:31.720Z,937
2019-03-25T12:46:31.602Z,936.9
2019-03-25T12:47:31.505Z,936.9
2019-03-25T12:48:31.448Z,937
2019-03-25T12:49:31.325Z,936.8
2019-03-25T12:50:31.227Z,936.8
2019-03-25T12:51:31.545Z,936.9
2019-03-25T12:52:31.442Z,936.8
2019-03-25T12:53:31.336Z,937
2019-03-25T12:54:31.213Z,937
2019-03-25T12:55:31.141Z,937
2019-03-25T12:56:31.063Z,936.8
2019-03-25T12:57:30.934Z,937